Latest Weather Observations for Williamson

IDQ60801

Issued at 8:02 am EST Tuesday 22 January 2019 (issued every 10 minutes, with the page automatically refreshed every 10 minutes)

About weather observations | Map of weather stations | Latest weather observations for QLD | Other Formats
Station Details ID: 033195 Name: WILLIAMSON Lat: -22.47 Lon: 150.18 Height: 27.6 m
Data from the previous 72 hours. | See also: Recent months at Williamson
Date/Time
EST
Temp
°C
App
Temp
°C
Dew
Point
°C
Rel
Hum
%
Delta-T
°C
Wind Press
QNH
hPa
Press
MSL
hPa
Rain since
9am
mm
Dir  Spd
km/h
Gust
km/h
Spd
kts
Gust
kts
22/08:00am 27.2 27.6 19.8 64 4.8 E 17 28 9 15 1014.6 1014.4 0.6
22/07:30am 26.7 28.2 19.8 66 4.5 ESE 11 22 6 12 1014.6 1014.4 0.6
22/07:00am 26.0 28.0 19.9 69 4.0 SE 9 15 5 8 1014.3 1014.1 0.6
22/06:30am 25.0 27.5 20.3 75 3.1 SSE 7 11 4 6 1014.1 1013.9 0.6
22/06:00am 23.6 26.2 20.1 81 2.3 SSE 6 9 3 5 1013.9 1013.7 0.6
22/05:30am 23.9 26.6 20.2 80 2.4 SE 6 11 3 6 1013.6 1013.4 0.6
22/05:00am 24.1 26.3 20.4 80 2.4 ESE 9 17 5 9 1013.5 1013.3 0.6
22/04:30am 24.2 26.4 20.3 79 2.5 SE 9 17 5 9 1013.4 1013.2 0.6
22/04:00am 23.9 26.5 20.4 81 2.3 ESE 7 13 4 7 1013.5 1013.3 0.6
22/03:30am 23.4 26.3 20.7 85 1.8 SE 6 11 3 6 1013.5 1013.3 0.6
22/03:00am 23.9 26.4 21.0 84 1.9 ESE 9 17 5 9 1013.6 1013.4 0.6
22/02:30am 22.1 26.2 21.6 97 0.3 W 2 9 1 5 1013.9 1013.7 0.6
22/02:00am 22.2 25.6 21.7 97 0.3 NW 6 7 3 4 1014.2 1014.0 0.6
22/01:30am 22.6 26.9 21.1 91 1.0 CALM 0 0 0 0 1014.5 1014.3 0.6
22/01:00am 23.7 25.0 20.2 81 2.3 ENE 13 22 7 12 1015.1 1014.9 0.0
22/12:30am 24.8 26.7 19.8 74 3.2 ESE 9 15 5 8 1015.1 1014.9 0.0
22/12:00am 25.0 26.2 20.0 74 3.2 ESE 13 20 7 11 1015.4 1015.2 0.0
 
Date/Time
EST
Temp
°C
App
Temp
°C
Dew
Point
°C
Rel
Hum
%
Delta-T
°C
Wind Press
QNH
hPa
Press
MSL
hPa
Rain since
9am
mm
Dir  Spd
km/h
Gust
km/h
Spd
kts
Gust
kts
21/11:30pm 25.2 26.9 20.2 74 3.3 ESE 11 22 6 12 1015.6 1015.4 0.0
21/11:00pm 25.3 27.5 20.3 74 3.3 ESE 9 19 5 10 1015.7 1015.5 0.0
21/10:30pm 25.3 27.0 20.1 73 3.4 ESE 11 19 6 10 1015.8 1015.6 0.0
21/10:00pm 25.4 26.7 20.2 73 3.4 ESE 13 24 7 13 1015.8 1015.6 0.0
21/09:30pm 25.4 26.6 19.8 71 3.6 ESE 13 20 7 11 1015.7 1015.5 0.0
21/09:00pm 25.4 26.4 19.5 70 3.8 ESE 13 22 7 12 1015.4 1015.2 0.0
21/08:30pm 25.6 26.6 19.5 69 3.9 ESE 13 22 7 12 1015.2 1015.0 0.0
21/08:00pm 25.8 26.7 19.2 67 4.2 ESE 13 28 7 15 1015.0 1014.8 0.0
21/07:30pm 26.2 27.3 19.6 67 4.3 E 13 19 7 10 1014.7 1014.5 0.0
21/07:00pm 26.7 27.3 18.6 61 5.2 ESE 13 24 7 13 1014.2 1014.0 0.0
21/06:30pm 27.4 27.2 17.6 55 6.2 ESE 15 24 8 13 1013.6 1013.4 0.0
21/06:00pm 28.2 27.0 17.4 52 6.8 E 20 33 11 18 1013.1 1012.9 0.0
21/05:30pm 28.3 28.3 18.1 54 6.5 ESE 15 24 8 13 1012.8 1012.6 0.0
21/05:00pm 29.2 29.4 18.6 52 6.8 E 15 28 8 15 1012.5 1012.3 0.0
21/04:30pm 29.6 29.8 19.3 54 6.7 E 17 35 9 19 1012.3 1012.1 0.0
21/04:00pm 30.0 29.2 18.1 49 7.6 ESE 19 30 10 16 1012.2 1012.0 0.0
21/03:30pm 30.3 29.7 18.4 49 7.7 E 19 32 10 17 1012.2 1012.0 0.0
21/03:00pm 30.6 29.5 17.7 46 8.2 ESE 20 37 11 20 1012.3 1012.1 0.0
21/02:30pm 30.6 30.1 17.7 46 8.2 ESE 17 28 9 15 1012.5 1012.3 0.0
21/02:00pm 30.8 30.6 18.5 47 7.9 E 17 35 9 19 1012.6 1012.4 0.0
21/01:30pm 30.4 29.6 18.5 49 7.7 E 20 37 11 20 1013.0 1012.8 0.0
21/01:00pm 30.2 29.2 18.0 48 7.8 E 20 43 11 23 1013.4 1013.2 0.0
21/12:30pm 29.9 28.5 18.7 51 7.2 E 24 37 13 20 1013.7 1013.5 0.0
21/12:00pm 29.4 28.9 19.1 54 6.7 ESE 20 33 11 18 1014.0 1013.8 0.0
21/11:30am 28.5 28.0 20.0 60 5.6 ESE 22 37 12 20 1014.4 1014.2 0.0
21/11:00am 29.0 29.8 19.9 58 6.0 E 15 28 8 15 1014.3 1014.1 0.0
21/10:30am 29.5 29.6 19.2 54 6.7 E 17 32 9 17 1014.7 1014.5 0.0
21/10:00am 29.3 29.3 19.0 53 6.7 E 17 28 9 15 1014.6 1014.4 0.0
21/09:30am 28.6 28.9 19.5 58 5.9 E 17 26 9 14 1014.6 1014.4 0.0
21/09:00am 27.7 28.1 19.8 62 5.1 ESE 17 28 9 15 1014.4 1014.2 0.0
21/08:30am 26.9 27.1 19.3 63 4.9 ESE 17 26 9 14 1014.3 1014.1 0.0
21/08:00am 27.3 28.5 19.9 64 4.8 ESE 13 20 7 11 1014.2 1014.0 0.0
21/07:30am 26.6 27.1 19.2 64 4.8 E 15 28 8 15 1014.0 1013.8 0.0
21/07:00am 26.3 27.4 19.7 67 4.3 ESE 13 24 7 13 1014.1 1013.9 0.0
21/06:30am 25.5 26.7 19.9 71 3.6 ESE 13 19 7 10 1013.9 1013.7 0.0
21/06:00am 24.8 26.3 19.8 74 3.2 ESE 11 22 6 12 1013.6 1013.4 0.0
21/05:30am 24.7 25.7 19.5 73 3.3 ESE 13 20 7 11 1013.2 1013.0 0.0
21/05:00am 24.4 26.5 20.1 77 2.8 SE 9 17 5 9 1013.1 1012.9 0.0
21/04:30am 24.7 26.3 20.0 75 3.0 SE 11 20 6 11 1012.9 1012.7 0.0
21/04:00am 23.1 25.8 20.6 86 1.6 S 7 9 4 5 1013.0 1012.8 0.0
21/03:30am 24.6 26.8 20.3 77 2.8 SSE 9 17 5 9 1013.1 1012.9 0.0
21/03:00am 24.9 27.2 20.6 77 2.8 SE 9 15 5 8 1013.1 1012.9 0.0
21/02:30am 24.7 26.9 20.4 77 2.8 ESE 9 15 5 8 1013.3 1013.1 0.0
21/02:00am 24.7 27.3 20.4 77 2.8 ESE 7 11 4 6 1013.6 1013.4 0.0
21/01:30am 24.6 27.2 20.5 78 2.7 SE 7 15 4 8 1014.0 1013.8 0.0
21/01:00am 24.8 27.1 20.7 78 2.7 ESE 9 17 5 9 1014.3 1014.1 0.0
21/12:30am 24.8 26.8 20.7 78 2.7 ESE 11 19 6 10 1014.8 1014.6 0.0
21/12:00am 24.9 26.8 20.6 77 2.8 ESE 11 19 6 10 1015.1 1014.9 0.0
 
Date/Time
EST
Temp
°C
App
Temp
°C
Dew
Point
°C
Rel
Hum
%
Delta-T
°C
Wind Press
QNH
hPa
Press
MSL
hPa
Rain since
9am
mm
Dir  Spd
km/h
Gust
km/h
Spd
kts
Gust
kts
20/11:30pm 24.8 27.0 20.5 77 2.8 ESE 9 15 5 8 1015.3 1015.1 0.0
20/11:00pm 25.1 26.5 20.4 75 3.1 ESE 13 22 7 12 1015.6 1015.4 0.0
20/10:30pm 25.2 26.9 20.2 74 3.3 ESE 11 19 6 10 1015.7 1015.5 0.0
20/10:00pm 25.0 26.9 20.5 76 2.9 ESE 11 19 6 10 1015.9 1015.7 0.0
20/09:30pm 25.1 26.5 20.4 75 3.1 ESE 13 20 7 11 1015.7 1015.5 0.0
20/09:00pm 25.1 27.0 20.6 76 2.9 E 11 20 6 11 1015.6 1015.4 0.0
20/08:30pm 25.2 27.3 20.2 74 3.3 ESE 9 17 5 9 1015.3 1015.1 0.0
20/08:00pm 25.5 26.7 19.9 71 3.6 E 13 22 7 12 1015.1 1014.9 0.0
20/07:30pm 25.9 26.9 19.5 68 4.1 E 13 20 7 11 1014.8 1014.6 0.0
20/07:00pm 25.9 27.4 19.8 69 4.0 E 11 22 6 12 1014.6 1014.4 0.0
20/06:30pm 26.5 27.6 18.9 63 4.9 ESE 11 20 6 11 1014.4 1014.2 0.0
20/06:00pm 27.0 27.8 19.1 62 5.1 ESE 13 24 7 13 1014.2 1014.0 0.0
20/05:30pm 28.0 28.0 19.0 58 5.8 E 17 24 9 13 1013.8 1013.6 0.0
20/05:00pm 28.6 28.0 18.4 54 6.5 E 19 26 10 14 1013.6 1013.4 0.0
20/04:30pm 29.3 28.2 17.8 50 7.3 E 20 35 11 19 1013.4 1013.2 0.0
20/04:00pm 30.1 28.7 16.5 44 8.5 ESE 19 30 10 16 1013.4 1013.2 0.0
20/03:30pm 29.9 29.0 17.7 48 7.8 ESE 19 30 10 16 1013.6 1013.4 0.0
20/03:00pm 29.9 29.2 18.3 49 7.5 ESE 19 33 10 18 1013.8 1013.6 0.0
20/02:30pm 29.3 28.9 19.0 53 6.7 E 19 35 10 19 1013.8 1013.6 0.0
20/02:00pm 30.7 30.3 19.4 51 7.4 ESE 20 32 11 17 1014.0 1013.8 0.0
20/01:30pm 30.4 30.5 19.1 50 7.4 ESE 17 28 9 15 1014.4 1014.2 0.0
20/01:00pm 30.0 29.6 18.8 51 7.2 E 19 35 10 19 1014.8 1014.6 0.0
20/12:30pm 29.7 28.4 18.2 50 7.4 E 22 39 12 21 1015.2 1015.0 0.0
20/12:00pm 30.2 29.2 17.6 46 8.0 E 19 35 10 19 1015.5 1015.3 0.0
20/11:30am 29.6 28.8 18.4 51 7.2 ENE 20 33 11 18 1015.7 1015.5 0.0
20/11:00am 29.6 30.0 18.1 50 7.4 E 13 22 7 12 1015.5 1015.3 0.0
20/10:30am 28.5 28.2 19.2 57 6.0 E 19 32 10 17 1015.6 1015.4 0.0
20/10:00am 28.1 28.4 18.8 57 6.0 ESE 15 32 8 17 1015.5 1015.3 0.0
20/09:30am 28.5 28.7 19.4 57 5.9 ESE 17 32 9 17 1015.5 1015.3 0.0
20/09:00am 27.8 28.1 19.6 61 5.3 ESE 17 26 9 14 1015.4 1015.2 0.2
20/08:30am 27.6 28.2 19.4 61 5.3 ESE 15 26 8 14 1015.5 1015.3 0.2
20/08:00am 26.3 28.0 20.2 69 4.0 SSE 11 15 6 8 1015.3 1015.1 0.2
20/07:30am 25.0 27.4 20.9 78 2.7 SSW 9 11 5 6 1015.0 1014.8 0.2
20/07:00am 23.6 26.1 21.1 86 1.6 S 9 11 5 6 1014.7 1014.5 0.2
20/06:30am 21.7 25.9 21.0 96 0.5 CALM 0 0 0 0 1014.4 1014.2 0.2
20/06:00am 20.5 24.3 20.2 98 0.2 CALM 0 0 0 0 1014.1 1013.9 0.2
20/05:30am 20.0 23.6 19.7 98 0.2 CALM 0 6 0 3 1013.8 1013.6 0.2
20/05:00am 20.1 23.6 19.6 97 0.3 CALM 0 0 0 0 1013.5 1013.3 0.0
20/04:30am 20.9 23.6 20.6 98 0.2 SSE 7 9 4 5 1013.4 1013.2 0.0
20/04:00am 20.9 23.7 20.4 97 0.3 S 6 11 3 6 1013.2 1013.0 0.0
20/03:30am 21.0 23.7 20.3 96 0.5 S 6 9 3 5 1013.2 1013.0 0.0
20/03:00am 21.4 24.3 20.7 96 0.5 SE 6 7 3 4 1013.3 1013.1 0.0
20/02:30am 21.2 24.0 20.5 96 0.5 SSE 6 9 3 5 1013.6 1013.4 0.0
20/02:00am 21.2 25.2 20.5 96 0.5 CALM 0 0 0 0 1013.8 1013.6 0.0
20/01:30am 21.5 25.6 20.7 95 0.5 CALM 0 0 0 0 1014.1 1013.9 0.0
20/01:00am 21.7 25.7 20.5 93 0.8 CALM 0 0 0 0 1014.3 1014.1 0.0
20/12:30am 22.3 25.8 20.4 89 1.2 SSE 2 6 1 3 1014.4 1014.2 0.0
20/12:00am 22.9 26.4 20.4 86 1.6 SE 2 6 1 3 1014.6 1014.4 0.0
 
Date/Time
EST
Temp
°C
App
Temp
°C
Dew
Point
°C
Rel
Hum
%
Delta-T
°C
Wind Press
QNH
hPa
Press
MSL
hPa
Rain since
9am
mm
Dir  Spd
km/h
Gust
km/h
Spd
kts
Gust
kts
19/11:30pm 23.7 26.4 20.2 81 2.3 ESE 6 9 3 5 1014.6 1014.4 0.0
19/11:00pm 23.9 26.1 20.4 81 2.3 ESE 9 11 5 6 1014.8 1014.6 0.0
19/10:30pm 24.1 26.3 20.4 80 2.4 ESE 9 11 5 6 1014.9 1014.7 0.0
19/10:00pm 24.4 26.6 20.3 78 2.7 ESE 9 15 5 8 1014.9 1014.7 0.0
19/09:30pm 24.7 26.8 20.2 76 2.9 ENE 9 15 5 8 1014.7 1014.5 0.0
19/09:00pm 24.9 26.6 20.2 75 3.1 E 11 17 6 9 1014.5 1014.3 0.0
19/08:30pm 25.2 27.2 20.0 73 3.4 E 9 17 5 9 1014.3 1014.1 0.0
19/08:00pm 25.3 27.3 19.9 72 3.5 ESE 9 13 5 7 1014.2 1014.0 0.0
19/07:30pm 25.7 27.7 20.0 71 3.7 E 9 19 5 10 1014.2 1014.0 0.0
19/07:00pm 26.0 28.1 20.1 70 3.8 E 9 15 5 8 1013.9 1013.7 0.0
19/06:30pm 26.8 28.1 20.2 67 4.3 ESE 13 20 7 11 1013.6 1013.4 0.0
19/06:00pm 27.2 28.0 19.8 64 4.8 E 15 24 8 13 1013.2 1013.0 0.0
19/05:30pm 27.6 27.9 19.7 62 5.1 E 17 24 9 13 1012.9 1012.7 0.0
19/05:00pm 27.8 28.1 19.6 61 5.3 ESE 17 26 9 14 1012.9 1012.7 0.0
19/04:30pm 29.3 29.5 19.3 55 6.5 ESE 17 24 9 13 1012.9 1012.7 0.0
19/04:00pm 28.6 28.7 19.2 56 6.1 ESE 17 28 9 15 1012.9 1012.7 0.0
19/03:30pm 29.6 29.8 19.3 54 6.7 E 17 32 9 17 1013.0 1012.8 0.0
19/03:00pm 29.4 29.2 19.4 55 6.5 E 19 32 10 17 1013.2 1013.0 0.0
19/02:30pm 29.3 29.3 19.0 53 6.7 ENE 17 32 9 17 1013.7 1013.5 0.0
19/02:00pm 30.0 30.9 20.0 55 6.6 E 15 32 8 17 1014.1 1013.9 0.0
19/01:30pm 29.0 28.6 19.0 54 6.5 ENE 19 33 10 18 1014.3 1014.1 0.0
19/01:00pm 28.7 28.8 19.1 56 6.2 E 17 33 9 18 1014.5 1014.3 0.0
19/12:30pm 28.7 28.6 18.8 55 6.4 ESE 17 30 9 16 1014.8 1014.6 0.0
19/12:00pm 29.2 29.7 21.2 62 5.3 ESE 20 30 11 16 1015.1 1014.9 0.0
19/11:30am 26.8 29.0 21.8 74 3.3 E 13 20 7 11 1015.4 1015.2 0.0
19/11:00am 27.6 28.2 20.2 64 4.8 E 17 30 9 16 1015.7 1015.5 0.0
19/10:30am 27.6 28.3 20.4 65 4.7 ESE 17 30 9 16 1015.9 1015.7 0.0
19/10:00am 25.9 28.5 20.5 72 3.5 SE 7 13 4 7 1016.1 1015.9 0.0
19/09:30am 26.3 27.5 19.9 68 4.2 ESE 13 22 7 12 1016.1 1015.9 0.0
19/09:00am 26.7 28.1 19.6 65 4.6 E 11 20 6 11 1016.1 1015.9 0.8
19/08:30am 26.1 28.4 20.7 72 3.5 E 9 13 5 7 1015.9 1015.7 0.8

Other Formats:

Comma delimited format used in spreadsheet applications
http://www.bom.gov.au/fwo/IDQ60801/IDQ60801.95370.axf

JavaScript Object Notation format (JSON) in row-major order
http://www.bom.gov.au/fwo/IDQ60801/IDQ60801.95370.json